Time;durP1;ratioP1;P1;durP2;ratioP2;P2;SDS_P1;SDS_P2;PMS_P1;PMS_P2;Temp;Humidity;BMP_temperature;BMP_pressure;BME280_temperature;BME280_humidity;BME280_pressure;Samples;Min_cycle;Max_cycle;Signal;HPM_P1;HPM_P2
2023/09/08 00:00:12;;;;;;;8.80;8.10;;;17.70;99.90;;;;;;4993844;28;20470;-73
2023/09/08 00:02:44;;;;;;;9.93;9.03;;;17.60;99.90;;;;;;4993763;28;20781;-73
2023/09/08 00:05:10;;;;;;;10.10;9.20;;;17.60;99.90;;;;;;4993743;28;20458;-73
2023/09/08 00:07:36;;;;;;;8.70;7.80;;;17.60;99.90;;;;;;4991791;28;20879;-73
2023/09/08 00:10:02;;;;;;;11.77;9.70;;;17.50;99.90;;;;;;4993868;28;20436;-74
2023/09/08 00:12:28;;;;;;;11.60;8.40;;;17.50;99.90;;;;;;4993783;28;20415;-73
2023/09/08 00:14:54;;;;;;;9.80;9.00;;;17.50;99.90;;;;;;4993735;28;20408;-73
2023/09/08 00:17:20;;;;;;;9.67;8.77;;;17.50;99.90;;;;;;4992908;28;20251;-73
2023/09/08 00:19:46;;;;;;;9.60;8.60;;;17.50;99.90;;;;;;4992832;28;20176;-73
2023/09/08 00:22:12;;;;;;;10.17;9.07;;;17.50;99.90;;;;;;4993818;28;20450;-73
2023/09/08 00:24:38;;;;;;;9.70;8.80;;;17.40;99.90;;;;;;4993695;28;20181;-72
2023/09/08 00:27:04;;;;;;;9.70;8.90;;;17.40;99.90;;;;;;4992780;28;20471;-73
2023/09/08 00:29:30;;;;;;;10.90;9.90;;;17.40;99.90;;;;;;4994161;28;20400;-73
2023/09/08 00:31:56;;;;;;;8.90;8.07;;;17.40;99.90;;;;;;4993735;28;20412;-73
2023/09/08 00:34:22;;;;;;;15.97;8.40;;;17.40;99.90;;;;;;4993701;28;20435;-73
2023/09/08 00:36:48;;;;;;;10.00;9.00;;;17.30;99.90;;;;;;4991612;28;20566;-73
2023/09/08 00:39:14;;;;;;;12.40;10.20;;;17.30;99.90;;;;;;4993637;28;20920;-72
2023/09/08 00:41:40;;;;;;;9.63;8.83;;;17.30;99.90;;;;;;4993457;28;20451;-73
2023/09/08 00:44:30;;;;;;;9.50;8.60;;;17.30;99.90;;;;;;4993334;28;20404;-73
2023/09/08 00:47:04;;;;;;;9.83;8.23;;;17.20;99.90;;;;;;4992336;28;20434;-73
2023/09/08 00:49:30;;;;;;;9.50;8.70;;;17.20;99.90;;;;;;4992292;28;20411;-73
2023/09/08 00:51:56;;;;;;;9.87;9.00;;;17.10;99.90;;;;;;4993588;28;20507;-72
2023/09/08 00:54:23;;;;;;;10.07;9.20;;;17.10;99.90;;;;;;4996571;28;20419;-73
2023/09/08 00:56:53;;;;;;;9.60;8.73;;;17.10;99.90;;;;;;4996198;28;20439;-73
2023/09/08 00:59:22;;;;;;;13.90;8.43;;;17.10;99.90;;;;;;4997110;28;20407;-73
2023/09/08 01:01:51;;;;;;;10.83;9.93;;;17.10;99.90;;;;;;4997048;28;20447;-72
2023/09/08 01:04:20;;;;;;;9.70;8.90;;;17.10;99.90;;;;;;4997067;28;20759;-73
2023/09/08 01:06:57;;;;;;;9.83;9.03;;;17.10;99.90;;;;;;4995992;28;20460;-73
2023/09/08 01:09:24;;;;;;;9.90;9.00;;;17.00;99.90;;;;;;4995871;28;20515;-72
2023/09/08 01:11:51;;;;;;;10.27;9.40;;;17.00;99.90;;;;;;4996930;28;20466;-73
2023/09/08 01:14:20;;;;;;;10.67;9.57;;;17.00;99.90;;;;;;4995590;28;20784;-73
2023/09/08 01:16:46;;;;;;;10.60;9.60;;;17.00;99.90;;;;;;4994628;28;20777;-73
2023/09/08 01:19:14;;;;;;;10.43;9.53;;;17.00;99.90;;;;;;4996710;28;20436;-73
2023/09/08 01:22:01;;;;;;;10.43;9.20;;;17.00;99.90;;;;;;4996638;28;20175;-72
2023/09/08 01:24:44;;;;;;;10.13;9.33;;;17.00;99.90;;;;;;4995770;28;20507;-73
2023/09/08 01:27:14;;;;;;;10.97;9.17;;;17.00;99.90;;;;;;4994688;28;20456;-73
2023/09/08 01:29:44;;;;;;;11.70;10.03;;;17.00;99.90;;;;;;4996546;28;20408;-72
2023/09/08 01:32:10;;;;;;;10.17;8.80;;;17.00;99.90;;;;;;4995541;28;20431;-72
2023/09/08 01:34:39;;;;;;;10.70;9.80;;;17.00;99.90;;;;;;4996480;28;20412;-73
2023/09/08 01:37:07;;;;;;;11.97;10.87;;;17.00;99.90;;;;;;4994204;28;20800;-73
2023/09/08 01:39:33;;;;;;;12.30;11.17;;;17.00;99.90;;;;;;4996237;28;20411;-73
2023/09/08 01:41:59;;;;;;;11.20;10.13;;;17.00;99.90;;;;;;4996298;28;20502;-73
2023/09/08 01:44:38;;;;;;;;;;;;;;;;;;;;;
2023/09/08 01:47:10;;;;;;;10.80;9.53;;;17.00;99.90;;;;;;4995296;28;20462;-73
2023/09/08 01:49:35;;;;;;;10.13;9.13;;;17.00;99.90;;;;;;4996211;28;20474;-73
2023/09/08 01:52:01;;;;;;;10.90;10.00;;;17.00;99.90;;;;;;4994917;28;20924;-73
2023/09/08 01:54:29;;;;;;;10.83;9.83;;;17.00;99.90;;;;;;4996077;28;20204;-73
2023/09/08 01:56:57;;;;;;;11.10;10.00;;;17.00;99.90;;;;;;4995113;28;20847;-73
2023/09/08 01:59:23;;;;;;;10.87;9.87;;;17.00;99.90;;;;;;4995012;28;20184;-73
2023/09/08 02:01:54;;;;;;;10.47;9.50;;;17.00;99.90;;;;;;4994903;28;20972;-74
2023/09/08 02:04:20;;;;;;;10.33;9.53;;;16.90;99.90;;;;;;4995447;28;20169;-73
2023/09/08 02:06:56;;;;;;;11.77;10.57;;;16.90;99.90;;;;;;4994998;28;20431;-73
2023/09/08 02:10:03;;;;;;;9.53;8.73;;;16.90;99.90;;;;;;4995638;28;20427;-74
2023/09/08 02:12:39;;;;;;;11.87;10.87;;;16.90;99.90;;;;;;4954987;29;20429;-72
2023/09/08 02:15:06;;;;;;;9.60;8.80;;;16.80;99.90;;;;;;4955047;29;20400;-73
2023/09/08 02:18:16;;;;;;;10.40;9.30;;;16.80;99.90;;;;;;4976982;28;20436;-72
2023/09/08 02:20:42;;;;;;;10.50;9.43;;;16.80;99.90;;;;;;4995647;28;20408;-73
2023/09/08 02:23:11;;;;;;;11.10;10.00;;;16.80;99.90;;;;;;4995450;28;20782;-73
2023/09/08 02:25:51;;;;;;;11.00;9.93;;;16.70;99.90;;;;;;4993573;28;20216;-73
2023/09/08 02:28:20;;;;;;;10.40;9.40;;;16.70;99.90;;;;;;4994205;28;21364;-73
2023/09/08 02:30:46;;;;;;;11.50;10.53;;;16.70;99.90;;;;;;4995469;28;20455;-72
2023/09/08 02:33:15;;;;;;;10.83;9.73;;;16.70;99.90;;;;;;4995405;28;20424;-72
2023/09/08 02:35:41;;;;;;;10.13;9.23;;;16.70;99.90;;;;;;4994373;28;20416;-73
2023/09/08 02:38:15;;;;;;;10.43;9.43;;;16.60;99.90;;;;;;4995224;28;20470;-74
2023/09/08 02:40:46;;;;;;;13.20;9.53;;;16.60;99.90;;;;;;4995209;28;20495;-73
2023/09/08 02:43:12;;;;;;;11.30;10.30;;;16.60;99.90;;;;;;4995149;28;20514;-72
2023/09/08 02:45:38;;;;;;;11.70;10.63;;;16.60;99.90;;;;;;4994217;28;20455;-73
2023/09/08 02:51:12;;;;;;;11.50;10.33;;;16.50;99.90;;;;;;4973423;28;20409;-73
2023/09/08 02:53:38;;;;;;;11.07;10.07;;;16.60;99.90;;;;;;4994491;28;20515;-73
2023/09/08 02:56:07;;;;;;;10.77;9.77;;;16.60;99.90;;;;;;4994096;28;20416;-73
2023/09/08 02:58:44;;;;;;;10.50;9.50;;;16.60;99.90;;;;;;4995070;28;20404;-72
2023/09/08 03:01:14;;;;;;;11.10;10.10;;;16.50;99.90;;;;;;4994915;28;20410;-73
2023/09/08 03:03:43;;;;;;;9.50;8.70;;;16.50;99.90;;;;;;4994693;28;20518;-72
2023/09/08 03:06:22;;;;;;;11.13;10.13;;;16.50;99.90;;;;;;4992851;28;20507;-73
2023/09/08 03:08:48;;;;;;;11.60;10.50;;;16.50;99.90;;;;;;4994659;28;20915;-72
2023/09/08 03:11:43;;;;;;;10.73;9.70;;;16.40;99.90;;;;;;4994774;28;20412;-73
2023/09/08 03:17:51;;;;;;;10.33;9.33;;;16.40;99.90;;;;;;4993002;28;20431;-73
2023/09/08 03:20:18;;;;;;;11.40;10.40;;;16.40;99.90;;;;;;4993489;28;20424;-73
2023/09/08 03:22:44;;;;;;;11.20;10.23;;;16.30;99.90;;;;;;4994474;28;20522;-73
2023/09/08 03:25:13;;;;;;;11.30;10.20;;;16.30;99.90;;;;;;4993035;28;20416;-72
2023/09/08 03:27:39;;;;;;;10.93;9.93;;;16.30;99.90;;;;;;4993696;28;20423;-73
2023/09/08 03:30:05;;;;;;;11.47;10.50;;;16.30;99.90;;;;;;4994328;28;20383;-72
2023/09/08 03:32:31;;;;;;;10.50;9.60;;;16.20;99.90;;;;;;4994310;28;20184;-73
2023/09/08 03:34:58;;;;;;;10.33;9.33;;;16.20;99.90;;;;;;4994359;28;20547;-73
2023/09/08 03:37:26;;;;;;;11.97;10.80;;;16.20;99.90;;;;;;4993293;28;20430;-73
2023/09/08 03:39:52;;;;;;;11.27;10.17;;;16.20;99.90;;;;;;4994268;28;20404;-73
2023/09/08 03:42:19;;;;;;;11.30;10.30;;;16.20;99.90;;;;;;4994054;28;20462;-73
2023/09/08 03:44:45;;;;;;;10.97;9.87;;;16.10;99.90;;;;;;4994219;28;20412;-72
2023/09/08 03:47:11;;;;;;;11.17;10.17;;;16.10;99.90;;;;;;4993135;28;20424;-72
2023/09/08 03:49:37;;;;;;;12.73;11.03;;;16.10;99.90;;;;;;4994230;28;20384;-72
2023/09/08 03:52:03;;;;;;;13.30;11.97;;;16.10;99.90;;;;;;4994077;28;20408;-72
2023/09/08 03:54:29;;;;;;;12.30;11.20;;;16.10;99.90;;;;;;4993981;28;20416;-72
2023/09/08 03:56:55;;;;;;;17.37;11.10;;;16.10;99.90;;;;;;4991861;28;20527;-72
2023/09/08 03:59:22;;;;;;;11.93;10.60;;;16.10;99.90;;;;;;4994017;28;20466;-72
2023/09/08 04:01:47;;;;;;;11.80;10.70;;;16.10;99.90;;;;;;4993829;28;20412;-72
2023/09/08 04:04:13;;;;;;;11.80;10.70;;;16.10;99.90;;;;;;4993876;28;20499;-73
2023/09/08 04:06:39;;;;;;;11.20;10.10;;;16.10;99.90;;;;;;4992930;28;20204;-72
2023/09/08 04:09:08;;;;;;;12.20;11.00;;;16.10;99.90;;;;;;4993869;28;20193;-73
2023/09/08 04:11:34;;;;;;;12.20;11.10;;;16.10;99.90;;;;;;4992896;28;20819;-73
2023/09/08 04:14:00;;;;;;;11.73;10.67;;;16.10;99.90;;;;;;4993876;28;20436;-73
2023/09/08 04:16:39;;;;;;;11.43;10.30;;;16.10;99.90;;;;;;4992777;28;20432;-73
2023/09/08 04:19:05;;;;;;;11.13;9.90;;;16.10;99.90;;;;;;4993848;28;20416;-72
2023/09/08 04:21:31;;;;;;;13.40;11.30;;;16.10;99.90;;;;;;4993698;28;20394;-73
2023/09/08 04:23:57;;;;;;;12.77;11.63;;;16.10;99.90;;;;;;4992553;28;20422;-72
2023/09/08 04:26:23;;;;;;;10.87;9.93;;;16.00;99.90;;;;;;4992883;28;20412;-72
2023/09/08 04:28:49;;;;;;;14.33;10.77;;;16.00;99.90;;;;;;4996574;28;20416;-72
2023/09/08 04:31:16;;;;;;;12.57;11.47;;;16.00;99.90;;;;;;4996482;28;20396;-72
2023/09/08 04:33:42;;;;;;;13.00;11.90;;;16.00;99.90;;;;;;4997646;28;20415;-72
2023/09/08 04:36:08;;;;;;;11.03;9.90;;;16.00;99.90;;;;;;4996625;28;20792;-72
2023/09/08 04:38:36;;;;;;;12.17;11.07;;;16.00;99.90;;;;;;4996238;28;20519;-72
2023/09/08 04:41:02;;;;;;;12.17;10.97;;;16.00;99.90;;;;;;4997481;28;20408;-73
2023/09/08 04:43:31;;;;;;;13.90;11.63;;;16.00;99.90;;;;;;4997380;28;20946;-72
2023/09/08 04:45:57;;;;;;;12.57;11.37;;;16.00;99.90;;;;;;4996576;28;20222;-72
2023/09/08 04:48:26;;;;;;;12.50;11.30;;;16.00;99.90;;;;;;4997345;28;20507;-72
2023/09/08 04:50:52;;;;;;;14.27;11.00;;;16.00;99.90;;;;;;4997232;28;20412;-72
2023/09/08 04:53:18;;;;;;;12.27;10.97;;;16.00;99.90;;;;;;4996301;28;20435;-72
2023/09/08 04:55:44;;;;;;;12.23;10.97;;;16.00;99.90;;;;;;4995105;28;20416;-72
2023/09/08 04:58:10;;;;;;;11.90;10.80;;;16.00;99.90;;;;;;4997083;28;20440;-72
2023/09/08 05:00:42;;;;;;;15.90;11.43;;;16.00;99.90;;;;;;4997113;28;20177;-73
2023/09/08 05:03:11;;;;;;;12.63;11.40;;;16.00;99.90;;;;;;4997011;28;20494;-72
2023/09/08 05:05:48;;;;;;;;;;;;;;;;;;;;;
2023/09/08 05:08:14;;;;;;;12.77;11.53;;;16.00;99.90;;;;;;4996850;28;20439;-73
2023/09/08 05:10:40;;;;;;;14.60;12.50;;;16.00;99.90;;;;;;4995881;28;20527;-73
2023/09/08 05:13:06;;;;;;;11.80;10.70;;;16.00;99.90;;;;;;4996893;28;20862;-72
2023/09/08 05:15:34;;;;;;;11.80;10.70;;;16.10;99.90;;;;;;4995991;28;20180;-72
2023/09/08 05:18:00;;;;;;;14.13;11.53;;;16.10;99.90;;;;;;4996794;28;20427;-72
2023/09/08 05:20:26;;;;;;;13.63;12.33;;;16.00;99.90;;;;;;4996837;28;20478;-72
2023/09/08 05:23:03;;;;;;;12.00;10.97;;;16.10;99.90;;;;;;4996610;28;20970;-73
2023/09/08 05:25:58;;;;;;;12.50;11.27;;;16.10;99.90;;;;;;4994750;28;20416;-72
2023/09/08 05:28:24;;;;;;;17.03;12.97;;;16.20;99.90;;;;;;4995849;28;20948;-73
2023/09/08 05:31:09;;;;;;;13.70;12.50;;;16.20;99.90;;;;;;4996647;28;20447;-72
2023/09/08 05:33:35;;;;;;;13.70;12.30;;;16.20;99.90;;;;;;4996501;28;20495;-73
2023/09/08 05:36:01;;;;;;;14.03;12.63;;;16.40;99.90;;;;;;4995546;28;20504;-72
2023/09/08 05:38:29;;;;;;;11.97;10.83;;;16.40;99.90;;;;;;4995455;28;20549;-72
2023/09/08 05:40:56;;;;;;;13.73;12.40;;;16.50;99.90;;;;;;4996395;28;20645;-72
2023/09/08 05:43:25;;;;;;;13.10;11.80;;;16.60;99.90;;;;;;4996118;28;20519;-75
2023/09/08 05:46:07;;;;;;;;;;;;;;;;;;;;;
2023/09/08 05:48:58;;;;;;;;;;;;;;;;;;;;;
2023/09/08 05:51:27;;;;;;;13.33;12.13;;;16.80;99.90;;;;;;4996106;28;20416;-77
2023/09/08 05:53:53;;;;;;;14.30;12.87;;;16.90;99.90;;;;;;4996061;28;20427;-76
2023/09/08 05:56:22;;;;;;;13.33;12.13;;;16.90;99.90;;;;;;4995153;28;20400;-77
2023/09/08 05:58:48;;;;;;;12.30;11.17;;;17.00;99.90;;;;;;4996189;28;20471;-75
2023/09/08 06:01:17;;;;;;;13.23;11.97;;;17.10;99.90;;;;;;4994633;28;20431;-77
2023/09/08 06:03:54;;;;;;;11.60;10.40;;;17.10;99.90;;;;;;4995874;28;21079;-72
2023/09/08 06:06:33;;;;;;;11.53;10.33;;;17.10;99.90;;;;;;4994957;28;20407;-73
2023/09/08 06:08:59;;;;;;;12.40;11.20;;;17.20;99.90;;;;;;4995707;28;20432;-71
2023/09/08 06:11:25;;;;;;;12.63;11.43;;;17.20;99.90;;;;;;4995788;28;20466;-72
2023/09/08 06:13:52;;;;;;;11.17;10.00;;;17.30;99.90;;;;;;4995797;28;20399;-72
2023/09/08 06:16:19;;;;;;;13.23;12.00;;;17.40;99.90;;;;;;4994926;28;20450;-72
2023/09/08 06:18:45;;;;;;;11.93;10.73;;;17.40;99.90;;;;;;4994500;28;20780;-72
2023/09/08 06:21:11;;;;;;;13.07;11.73;;;17.50;99.90;;;;;;4995496;28;20953;-73
2023/09/08 06:23:43;;;;;;;11.80;10.57;;;17.60;99.90;;;;;;4995350;28;20486;-72
2023/09/08 06:26:09;;;;;;;12.23;11.07;;;17.60;99.90;;;;;;4991421;28;20433;-74
2023/09/08 06:28:48;;;;;;;;;;;;;;;;;;;;;
2023/09/08 06:31:55;;;;;;;10.33;9.43;;;17.80;99.90;;;;;;4995215;28;20926;-72
2023/09/08 06:34:31;;;;;;;12.80;10.37;;;17.90;99.90;;;;;;4967941;28;20439;-74
2023/09/08 06:37:00;;;;;;;11.23;9.93;;;17.90;99.90;;;;;;4973773;28;20846;-73
2023/09/08 06:39:26;;;;;;;17.93;9.83;;;18.00;99.90;;;;;;4975829;28;20401;-72
2023/09/08 06:42:12;;;;;;;11.57;10.47;;;18.10;99.90;;;;;;4989649;28;20424;-73
2023/09/08 06:44:38;;;;;;;12.10;9.67;;;18.20;99.90;;;;;;4994893;28;20518;-73
2023/09/08 06:47:29;;;;;;;13.17;9.87;;;18.20;99.90;;;;;;4993137;28;20447;-73
2023/09/08 06:56:48;;;;;;;11.20;10.10;;;18.60;99.90;;;;;;4915042;29;20825;-72
2023/09/08 06:59:19;;;;;;;10.50;9.60;;;18.70;99.90;;;;;;4915981;29;20504;-73
2023/09/08 07:01:48;;;;;;;10.53;9.60;;;18.80;99.90;;;;;;4992686;28;20439;-72
2023/09/08 07:04:14;;;;;;;10.07;9.17;;;18.90;99.90;;;;;;4993524;28;20412;-72
2023/09/08 07:06:43;;;;;;;13.53;10.87;;;19.00;99.90;;;;;;4993853;28;20486;-73
2023/09/08 07:09:09;;;;;;;19.13;10.97;;;19.10;99.90;;;;;;4994627;28;20204;-72
2023/09/08 07:11:35;;;;;;;10.27;9.37;;;19.20;99.90;;;;;;4993491;28;20913;-72
2023/09/08 07:14:23;;;;;;;10.67;9.63;;;19.30;99.90;;;;;;4994645;28;20466;-73
2023/09/08 07:16:49;;;;;;;10.40;9.47;;;19.40;99.90;;;;;;4992638;28;20475;-73
2023/09/08 07:19:15;;;;;;;12.20;9.40;;;19.50;99.90;;;;;;4993569;28;20423;-74
2023/09/08 07:21:40;;;;;;;11.20;10.10;;;19.60;99.90;;;;;;4993370;28;20416;-72
2023/09/08 07:24:07;;;;;;;10.43;9.50;;;19.70;99.90;;;;;;4994382;28;20413;-74
2023/09/08 07:26:33;;;;;;;12.90;10.23;;;19.80;99.90;;;;;;4993581;28;20267;-72
2023/09/08 07:28:59;;;;;;;10.47;9.47;;;19.90;99.90;;;;;;4994511;28;20447;-71
2023/09/08 07:32:08;;;;;;;11.27;9.37;;;20.00;99.90;;;;;;4994331;28;20412;-73
2023/09/08 07:34:33;;;;;;;10.00;9.00;;;20.10;99.90;;;;;;4974952;28;20571;-72
2023/09/08 07:37:00;;;;;;;10.47;9.57;;;20.20;99.90;;;;;;4972945;28;20484;-73
2023/09/08 07:39:26;;;;;;;9.97;9.07;;;20.20;99.90;;;;;;4974868;28;20197;-74
2023/09/08 07:41:53;;;;;;;10.77;9.07;;;20.30;99.80;;;;;;4976250;28;20496;-72
2023/09/08 07:44:19;;;;;;;9.77;8.93;;;20.40;95.80;;;;;;4992935;28;20532;-72
2023/09/08 07:46:46;;;;;;;10.67;9.67;;;20.50;95.90;;;;;;4992168;28;20456;-73
2023/09/08 07:49:12;;;;;;;10.67;9.63;;;20.60;92.10;;;;;;4994036;28;20855;-74
2023/09/08 07:51:37;;;;;;;10.73;9.70;;;20.70;82.90;;;;;;4993202;28;20922;-74
2023/09/08 07:54:04;;;;;;;10.53;9.50;;;20.80;76.00;;;;;;4993998;28;20412;-74
2023/09/08 07:56:30;;;;;;;12.20;8.93;;;20.90;72.60;;;;;;4991857;28;20594;-72
2023/09/08 07:58:56;;;;;;;9.70;8.70;;;20.90;62.90;;;;;;4994126;28;20408;-72
2023/09/08 08:01:21;;;;;;;10.50;9.03;;;21.00;57.30;;;;;;4992381;28;20431;-71
2023/09/08 08:03:47;;;;;;;10.30;9.40;;;21.10;47.70;;;;;;4991103;28;20217;-74
2023/09/08 08:06:13;;;;;;;10.27;9.30;;;21.10;44.70;;;;;;4992877;28;20177;-72
2023/09/08 08:08:40;;;;;;;8.83;7.97;;;21.30;43.30;;;;;;4992729;28;20207;-72
2023/09/08 08:11:17;;;;;;;12.57;9.53;;;21.40;36.10;;;;;;4992755;28;20482;-71
2023/09/08 08:13:43;;;;;;;11.53;10.20;;;21.50;25.70;;;;;;4991773;28;20471;-71
2023/09/08 08:16:09;;;;;;;10.63;9.53;;;21.60;6.40;;;;;;4991741;28;20474;-71
2023/09/08 08:18:35;;;;;;;9.93;9.00;;;21.60;1.00;;;;;;4992665;28;20820;-71
2023/09/08 08:21:03;;;;;;;10.73;9.30;;;21.70;1.00;;;;;;4991991;28;20184;-73
2023/09/08 08:23:30;;;;;;;9.53;8.70;;;21.80;1.00;;;;;;4993827;28;20671;-73
2023/09/08 08:25:56;;;;;;;9.87;8.97;;;21.90;1.00;;;;;;4992862;28;20459;-72
2023/09/08 08:28:22;;;;;;;12.00;9.43;;;22.00;1.00;;;;;;4993621;28;20435;-71
2023/09/08 08:30:47;;;;;;;12.83;8.80;;;22.20;1.00;;;;;;4991745;28;20807;-74
2023/09/08 08:33:14;;;;;;;8.03;7.27;;;22.20;1.00;;;;;;4990368;28;20192;-73
2023/09/08 08:35:39;;;;;;;9.20;8.50;;;22.40;1.00;;;;;;4990761;28;20224;-73
2023/09/08 08:38:05;;;;;;;9.03;8.10;;;22.50;1.00;;;;;;4992600;28;20861;-73
2023/09/08 08:40:33;;;;;;;9.17;8.37;;;22.70;1.00;;;;;;4992174;28;20185;-73
2023/09/08 08:43:00;;;;;;;9.97;9.00;;;22.80;1.00;;;;;;4993233;28;20479;-73
2023/09/08 08:45:26;;;;;;;10.77;9.10;;;22.90;1.00;;;;;;4991312;28;20509;-70
2023/09/08 08:47:53;;;;;;;8.80;8.00;;;23.00;1.00;;;;;;4990914;28;20432;-71
2023/09/08 08:50:20;;;;;;;9.27;7.83;;;23.20;1.00;;;;;;4992051;28;20777;-69
2023/09/08 08:52:46;;;;;;;9.23;8.43;;;23.30;1.00;;;;;;4992259;28;20440;-73
2023/09/08 08:55:14;;;;;;;11.03;8.47;;;23.50;1.00;;;;;;4991579;28;20924;-70
2023/09/08 08:57:40;;;;;;;8.53;7.73;;;23.60;1.00;;;;;;4992569;28;20436;-70
2023/09/08 09:00:11;;;;;;;8.50;7.60;;;23.80;1.00;;;;;;4993173;28;20503;-73
2023/09/08 09:02:42;;;;;;;10.43;9.10;;;24.00;1.00;;;;;;4990671;28;20829;-73
2023/09/08 09:05:18;;;;;;;8.63;7.80;;;24.10;1.00;;;;;;4991999;28;20435;-74
2023/09/08 09:07:43;;;;;;;8.40;7.60;;;24.30;1.00;;;;;;4992886;28;20459;-69
2023/09/08 09:10:10;;;;;;;9.07;7.87;;;24.40;1.00;;;;;;4992960;28;20454;-73
2023/09/08 09:12:39;;;;;;;7.77;7.27;;;24.60;1.00;;;;;;4990720;28;20654;-74
2023/09/08 09:15:05;;;;;;;8.80;7.90;;;24.80;1.00;;;;;;4994620;28;20466;-74
2023/09/08 09:17:35;;;;;;;8.70;7.80;;;24.90;1.00;;;;;;4994593;28;20986;-71
2023/09/08 09:20:17;;;;;;;9.27;7.40;;;25.10;1.00;;;;;;4993531;28;20438;-70
2023/09/08 09:22:44;;;;;;;9.13;7.80;;;25.40;1.00;;;;;;4996125;28;20455;-70
2023/09/08 09:25:20;;;;;;;8.68;7.78;;;25.70;1.00;;;;;;4995707;28;20407;-74
2023/09/08 09:27:51;;;;;;;8.00;7.20;;;26.00;1.00;;;;;;4994952;28;20192;-70
2023/09/08 09:30:16;;;;;;;8.60;7.80;;;26.30;1.00;;;;;;4996191;28;20401;-69
2023/09/08 09:32:43;;;;;;;8.27;7.37;;;26.60;1.00;;;;;;4994736;28;20400;-75
2023/09/08 09:35:08;;;;;;;9.20;7.27;;;26.80;1.00;;;;;;4995780;28;20203;-71
2023/09/08 09:37:35;;;;;;;7.30;6.60;;;27.20;1.00;;;;;;4991327;28;20459;-69
2023/09/08 09:40:05;;;;;;;7.50;6.87;;;27.50;1.00;;;;;;4996076;28;20171;-70
2023/09/08 09:42:31;;;;;;;6.63;6.13;;;27.60;1.00;;;;;;4996022;28;20539;-75
2023/09/08 09:44:57;;;;;;;7.50;6.90;;;27.70;1.00;;;;;;4995993;28;20971;-72
2023/09/08 09:47:23;;;;;;;6.40;5.90;;;27.90;1.00;;;;;;4994004;28;20448;-75
2023/09/08 09:49:49;;;;;;;7.87;7.17;;;28.10;1.00;;;;;;4995253;28;20236;-70
2023/09/08 09:52:23;;;;;;;6.57;6.07;;;28.20;1.00;;;;;;4996106;28;20256;-69
2023/09/08 09:54:53;;;;;;;7.47;5.87;;;28.40;1.00;;;;;;4995894;28;20408;-69
2023/09/08 09:57:21;;;;;;;21.83;6.80;;;28.50;1.00;;;;;;4993927;28;20542;-74
2023/09/08 09:59:50;;;;;;;8.40;5.80;;;28.50;1.00;;;;;;4995799;28;20475;-69
2023/09/08 10:02:21;;;;;;;11.07;6.37;;;28.70;1.00;;;;;;4994629;28;20495;-75
2023/09/08 10:04:51;;;;;;;7.30;6.67;;;28.90;1.00;;;;;;4994558;28;20401;-73
2023/09/08 10:07:18;;;;;;;7.43;6.60;;;29.00;1.00;;;;;;4992803;28;20436;-76
2023/09/08 10:09:44;;;;;;;6.57;5.97;;;29.10;1.00;;;;;;4995624;28;20448;-76
2023/09/08 10:12:15;;;;;;;6.77;6.10;;;29.40;1.00;;;;;;4995620;28;20451;-77
2023/09/08 10:14:42;;;;;;;8.33;6.43;;;29.60;1.00;;;;;;4992689;28;20185;-74
2023/09/08 10:17:18;;;;;;;10.23;6.30;;;29.80;1.00;;;;;;4993429;28;20412;-72
2023/09/08 10:19:51;;;;;;;8.53;7.63;;;30.30;1.00;;;;;;4995443;28;20416;-70
2023/09/08 10:22:22;;;;;;;7.27;5.60;;;30.50;1.00;;;;;;4995375;28;20562;-69
2023/09/08 10:24:51;;;;;;;6.87;6.17;;;30.60;1.00;;;;;;4993353;28;20931;-76
2023/09/08 10:27:21;;;;;;;7.10;5.57;;;30.70;1.00;;;;;;4994191;28;20477;-77
2023/09/08 10:29:48;;;;;;;6.43;5.93;;;30.80;1.00;;;;;;4995325;28;20419;-70
2023/09/08 10:32:15;;;;;;;8.73;6.07;;;30.80;1.00;;;;;;4994158;28;20443;-75
2023/09/08 10:34:43;;;;;;;9.70;5.77;;;30.80;1.00;;;;;;4995155;28;20964;-69
2023/09/08 10:37:25;;;;;;;5.87;5.37;;;31.00;1.00;;;;;;4994015;28;20424;-69
2023/09/08 10:39:51;;;;;;;5.73;5.30;;;31.20;1.00;;;;;;4994973;28;20752;-71
2023/09/08 10:42:18;;;;;;;8.93;5.43;;;31.40;1.00;;;;;;4993981;28;20471;-78
2023/09/08 10:44:47;;;;;;;5.83;5.20;;;31.70;1.00;;;;;;4994440;28;20404;-78
2023/09/08 10:47:13;;;;;;;6.67;5.40;;;31.70;99.90;;;;;;4992038;28;21043;-71
2023/09/08 10:49:40;;;;;;;6.40;5.80;;;31.60;99.90;;;;;;4993840;28;20413;-78
2023/09/08 10:52:10;;;;;;;9.17;5.53;;;31.60;99.90;;;;;;4993763;28;20939;-78
2023/09/08 10:54:48;;;;;;;6.90;6.40;;;31.40;99.90;;;;;;4993703;28;20504;-78
2023/09/08 10:57:16;;;;;;;11.00;8.90;;;31.50;99.90;;;;;;4993866;28;20451;-78
2023/09/08 10:59:51;;;;;;;8.83;6.50;;;31.60;99.90;;;;;;4994698;28;20412;-77
2023/09/08 11:02:36;;;;;;;6.03;5.60;;;32.10;99.90;;;;;;4993500;28;20459;-70
2023/09/08 11:05:04;;;;;;;6.40;5.87;;;32.20;99.90;;;;;;4994230;28;20460;-73
2023/09/08 11:07:32;;;;;;;12.17;5.80;;;32.20;99.90;;;;;;4993536;28;20444;-77
2023/09/08 11:09:59;;;;;;;7.70;5.30;;;32.40;99.90;;;;;;4994498;28;20924;-69
2023/09/08 11:12:27;;;;;;;5.70;5.27;;;32.60;99.90;;;;;;4993356;28;20435;-70
2023/09/08 11:14:53;;;;;;;6.17;5.57;;;32.50;99.90;;;;;;4994526;28;20432;-69
2023/09/08 11:17:18;;;;;;;6.83;5.27;;;32.40;99.90;;;;;;4974680;28;20542;-69
2023/09/08 11:19:49;;;;;;;5.63;5.00;;;32.20;99.90;;;;;;4974820;28;20224;-70
2023/09/08 11:22:16;;;;;;;9.67;5.17;;;31.80;99.90;;;;;;4981778;28;20684;-77
2023/09/08 11:24:44;;;;;;;6.33;5.67;;;31.40;99.90;;;;;;4994234;28;20404;-69
2023/09/08 11:27:11;;;;;;;6.67;6.00;;;31.30;99.90;;;;;;4992910;28;20495;-78
2023/09/08 11:29:41;;;;;;;7.43;5.80;;;31.30;99.90;;;;;;4994370;28;20451;-77
2023/09/08 11:32:08;;;;;;;7.23;5.30;;;31.00;99.90;;;;;;4993104;28;20534;-69
2023/09/08 11:34:37;;;;;;;6.83;6.10;;;30.60;99.90;;;;;;4994074;28;20404;-69
2023/09/08 11:37:13;;;;;;;9.00;6.60;;;30.20;99.90;;;;;;4992071;28;20959;-73
2023/09/08 11:39:43;;;;;;;7.20;6.60;;;29.90;99.90;;;;;;4992774;28;20863;-77
2023/09/08 11:42:11;;;;;;;7.33;6.10;;;29.80;99.90;;;;;;4990649;28;20475;-77
2023/09/08 11:44:37;;;;;;;7.93;6.27;;;30.00;99.90;;;;;;4992834;28;20946;-77
2023/09/08 11:47:06;;;;;;;6.50;5.80;;;30.50;99.90;;;;;;4991859;28;20447;-76
2023/09/08 11:49:39;;;;;;;6.60;6.10;;;31.00;99.90;;;;;;4992131;28;20438;-77
2023/09/08 11:52:06;;;;;;;6.97;6.30;;;31.20;99.90;;;;;;4993745;28;20483;-78
2023/09/08 11:54:33;;;;;;;6.97;6.30;;;31.30;99.90;;;;;;4992667;28;20455;-70
2023/09/08 11:57:05;;;;;;;8.17;7.37;;;31.20;99.90;;;;;;4992274;28;20423;-69
2023/09/08 11:59:34;;;;;;;9.83;6.20;;;30.90;99.90;;;;;;4993822;28;20892;-77
2023/09/08 12:02:01;;;;;;;10.73;6.13;;;30.60;99.90;;;;;;4992348;28;20432;-77
2023/09/08 12:04:27;;;;;;;6.60;6.10;;;30.40;99.90;;;;;;4993643;28;20407;-70
2023/09/08 12:06:55;;;;;;;6.67;6.07;;;30.20;99.90;;;;;;4992786;28;20412;-77
2023/09/08 12:09:21;;;;;;;7.90;7.10;;;30.30;99.90;;;;;;4993512;28;20216;-77
2023/09/08 12:11:47;;;;;;;7.47;6.33;;;30.20;99.90;;;;;;4991949;28;20428;-77
2023/09/08 12:14:14;;;;;;;7.73;6.47;;;30.20;99.90;;;;;;4993008;28;20757;-70
2023/09/08 12:16:41;;;;;;;15.83;6.43;;;30.30;99.90;;;;;;4991641;28;20538;-77
2023/09/08 12:19:07;;;;;;;6.80;5.47;;;30.40;99.90;;;;;;4992254;28;20431;-70
2023/09/08 12:21:55;;;;;;;7.97;6.57;;;30.50;99.90;;;;;;4993620;28;20408;-77
2023/09/08 12:24:40;;;;;;;6.43;5.93;;;30.80;99.90;;;;;;4993478;28;20466;-70
2023/09/08 12:27:06;;;;;;;6.50;6.00;;;30.90;99.90;;;;;;4990889;28;20943;-74
2023/09/08 12:29:32;;;;;;;7.80;6.43;;;31.10;99.90;;;;;;4992359;28;20419;-70
2023/09/08 12:31:57;;;;;;;6.70;6.20;;;31.20;99.90;;;;;;4991331;28;20185;-70
2023/09/08 12:34:23;;;;;;;7.27;6.67;;;31.30;99.90;;;;;;4988881;28;20204;-73
2023/09/08 12:36:49;;;;;;;6.37;5.87;;;31.30;99.90;;;;;;4991872;28;20279;-70
2023/09/08 12:39:14;;;;;;;6.37;5.87;;;31.20;99.90;;;;;;4992190;28;20165;-71
2023/09/08 12:41:40;;;;;;;9.40;6.07;;;31.10;99.90;;;;;;4993440;28;20180;-78
2023/09/08 12:44:06;;;;;;;7.43;6.17;;;31.00;99.90;;;;;;4989309;28;20212;-70
2023/09/08 12:46:33;;;;;;;6.80;6.10;;;30.90;99.90;;;;;;4990160;28;20196;-71
2023/09/08 12:48:59;;;;;;;6.53;6.03;;;30.80;99.90;;;;;;4994686;28;20169;-78
2023/09/08 12:51:25;;;;;;;7.13;6.60;;;30.50;99.90;;;;;;4995552;28;20931;-75
2023/09/08 12:53:50;;;;;;;8.07;6.00;;;30.50;99.90;;;;;;4995960;28;20538;-73
2023/09/08 12:56:18;;;;;;;6.30;5.80;;;30.40;99.90;;;;;;4995611;28;20263;-77
2023/09/08 12:58:43;;;;;;;9.30;6.37;;;30.40;99.90;;;;;;4996877;28;20188;-69
2023/09/08 13:01:09;;;;;;;6.90;6.30;;;30.40;99.90;;;;;;4994648;28;20928;-77
2023/09/08 13:03:35;;;;;;;6.63;6.07;;;30.40;99.90;;;;;;4996677;28;20192;-70
2023/09/08 13:06:00;;;;;;;6.33;5.73;;;30.40;99.90;;;;;;4995904;28;20327;-77
2023/09/08 13:08:26;;;;;;;6.17;5.50;;;30.50;99.90;;;;;;4996537;28;20197;-76